sensor_id;sensor_type;location;lat;lon;timestamp;pressure;altitude;pressure_sealevel;temperature
15453;BMP280;7827;53.594;9.938;2022-09-09T00:00:25;152246.16;;;15.62
15453;BMP280;7827;53.594;9.938;2022-09-09T00:03:04;152256.22;;;15.66
15453;BMP280;7827;53.594;9.938;2022-09-09T00:05:44;152261.25;;;15.68
15453;BMP280;7827;53.594;9.938;2022-09-09T00:08:21;152272.56;;;15.72
15453;BMP280;7827;53.594;9.938;2022-09-09T00:10:58;152273.78;;;15.73
15453;BMP280;7827;53.594;9.938;2022-09-09T00:13:34;152280.09;;;15.75
15453;BMP280;7827;53.594;9.938;2022-09-09T00:16:14;152277.56;;;15.74
15453;BMP280;7827;53.594;9.938;2022-09-09T00:18:56;152280.09;;;15.75
15453;BMP280;7827;53.594;9.938;2022-09-09T00:21:34;152283.88;;;15.77
15453;BMP280;7827;53.594;9.938;2022-09-09T00:24:23;152286.41;;;15.78
15453;BMP280;7827;53.594;9.938;2022-09-09T00:27:01;152288.88;;;15.79
15453;BMP280;7827;53.594;9.938;2022-09-09T00:29:38;152291.41;;;15.80
15453;BMP280;7827;53.594;9.938;2022-09-09T00:32:14;152292.66;;;15.80
15453;BMP280;7827;53.594;9.938;2022-09-09T00:34:49;152295.19;;;15.81
15453;BMP280;7827;53.594;9.938;2022-09-09T00:37:20;152291.41;;;15.80
15453;BMP280;7827;53.594;9.938;2022-09-09T00:39:55;152292.66;;;15.80
15453;BMP280;7827;53.594;9.938;2022-09-09T00:42:38;152290.19;;;15.79
15453;BMP280;7827;53.594;9.938;2022-09-09T00:45:30;152287.66;;;15.78
15453;BMP280;7827;53.594;9.938;2022-09-09T00:48:07;152277.56;;;15.74
15453;BMP280;7827;53.594;9.938;2022-09-09T00:50:53;152272.56;;;15.72
15453;BMP280;7827;53.594;9.938;2022-09-09T00:53:35;152275.09;;;15.73
15453;BMP280;7827;53.594;9.938;2022-09-09T00:56:13;152270.03;;;15.71
15453;BMP280;7827;53.594;9.938;2022-09-09T00:58:52;152266.25;;;15.70
15453;BMP280;7827;53.594;9.938;2022-09-09T01:01:25;152261.25;;;15.68
15453;BMP280;7827;53.594;9.938;2022-09-09T01:03:55;152256.22;;;15.66
15453;BMP280;7827;53.594;9.938;2022-09-09T01:06:31;152249.94;;;15.63
15453;BMP280;7827;53.594;9.938;2022-09-09T01:09:16;152246.16;;;15.62
15453;BMP280;7827;53.594;9.938;2022-09-09T01:11:57;152253.69;;;15.65
15453;BMP280;7827;53.594;9.938;2022-09-09T01:14:40;152249.94;;;15.63
15453;BMP280;7827;53.594;9.938;2022-09-09T01:17:17;152247.41;;;15.62
15453;BMP280;7827;53.594;9.938;2022-09-09T01:20:06;152251.16;;;15.64
15453;BMP280;7827;53.594;9.938;2022-09-09T01:22:57;152251.16;;;15.64
15453;BMP280;7827;53.594;9.938;2022-09-09T01:26:07;152256.22;;;15.66
15453;BMP280;7827;53.594;9.938;2022-09-09T01:28:39;152249.94;;;15.63
15453;BMP280;7827;53.594;9.938;2022-09-09T01:31:17;152246.16;;;15.62
15453;BMP280;7827;53.594;9.938;2022-09-09T01:33:47;152237.38;;;15.59
15453;BMP280;7827;53.594;9.938;2022-09-09T01:36:26;152239.84;;;15.59
15453;BMP280;7827;53.594;9.938;2022-09-09T01:38:57;152234.84;;;15.58
15453;BMP280;7827;53.594;9.938;2022-09-09T01:41:27;152239.84;;;15.59
15453;BMP280;7827;53.594;9.938;2022-09-09T01:44:03;152233.59;;;15.57
15453;BMP280;7827;53.594;9.938;2022-09-09T01:46:34;152232.31;;;15.57
15453;BMP280;7827;53.594;9.938;2022-09-09T01:49:07;152237.38;;;15.59
15453;BMP280;7827;53.594;9.938;2022-09-09T01:51:38;152239.84;;;15.59
15453;BMP280;7827;53.594;9.938;2022-09-09T01:54:10;152231.06;;;15.56
15453;BMP280;7827;53.594;9.938;2022-09-09T01:56:52;152233.59;;;15.57
15453;BMP280;7827;53.594;9.938;2022-09-09T01:59:50;152224.75;;;15.54
15453;BMP280;7827;53.594;9.938;2022-09-09T02:02:30;152208.44;;;15.47
15453;BMP280;7827;53.594;9.938;2022-09-09T02:05:24;152207.16;;;15.47
15453;BMP280;7827;53.594;9.938;2022-09-09T02:08:05;152199.59;;;15.44
15453;BMP280;7827;53.594;9.938;2022-09-09T02:10:54;152182.03;;;15.37
15453;BMP280;7827;53.594;9.938;2022-09-09T02:13:38;152164.44;;;15.30
15453;BMP280;7827;53.594;9.938;2022-09-09T02:16:16;152154.38;;;15.26
15453;BMP280;7827;53.594;9.938;2022-09-09T02:18:52;152150.59;;;15.24
15453;BMP280;7827;53.594;9.938;2022-09-09T02:21:33;152136.75;;;15.19
15453;BMP280;7827;53.594;9.938;2022-09-09T02:24:06;152134.28;;;15.18
15453;BMP280;7827;53.594;9.938;2022-09-09T02:26:44;152131.69;;;15.17
15453;BMP280;7827;53.594;9.938;2022-09-09T02:29:23;152132.97;;;15.17
15453;BMP280;7827;53.594;9.938;2022-09-09T02:31:56;152126.69;;;15.15
15453;BMP280;7827;53.594;9.938;2022-09-09T02:34:32;152119.13;;;15.12
15453;BMP280;7827;53.594;9.938;2022-09-09T02:37:06;152117.84;;;15.11
15453;BMP280;7827;53.594;9.938;2022-09-09T02:39:36;152114.06;;;15.10
15453;BMP280;7827;53.594;9.938;2022-09-09T02:42:07;152110.31;;;15.08
15453;BMP280;7827;53.594;9.938;2022-09-09T02:44:38;152109.06;;;15.08
15453;BMP280;7827;53.594;9.938;2022-09-09T02:47:24;152101.53;;;15.05
15453;BMP280;7827;53.594;9.938;2022-09-09T02:50:05;152097.75;;;15.04
15453;BMP280;7827;53.594;9.938;2022-09-09T02:52:47;152091.47;;;15.01
15453;BMP280;7827;53.594;9.938;2022-09-09T02:55:32;152095.22;;;15.03
15453;BMP280;7827;53.594;9.938;2022-09-09T02:58:08;152097.75;;;15.04
15453;BMP280;7827;53.594;9.938;2022-09-09T03:00:41;152095.22;;;15.03
15453;BMP280;7827;53.594;9.938;2022-09-09T03:03:09;152092.75;;;15.02
15453;BMP280;7827;53.594;9.938;2022-09-09T03:05:38;152083.91;;;14.98
15453;BMP280;7827;53.594;9.938;2022-09-09T03:08:10;152077.66;;;14.96
15453;BMP280;7827;53.594;9.938;2022-09-09T03:10:38;152080.16;;;14.97
15453;BMP280;7827;53.594;9.938;2022-09-09T03:13:07;152073.91;;;14.94
15453;BMP280;7827;53.594;9.938;2022-09-09T03:15:39;152073.91;;;14.94
15453;BMP280;7827;53.594;9.938;2022-09-09T03:18:12;152071.38;;;14.93
15453;BMP280;7827;53.594;9.938;2022-09-09T03:20:41;152072.59;;;14.94
15453;BMP280;7827;53.594;9.938;2022-09-09T03:23:10;152066.34;;;14.91
15453;BMP280;7827;53.594;9.938;2022-09-09T03:25:47;152058.81;;;14.88
15453;BMP280;7827;53.594;9.938;2022-09-09T03:28:19;152047.47;;;14.84
15453;BMP280;7827;53.594;9.938;2022-09-09T03:30:50;152044.97;;;14.83
15453;BMP280;7827;53.594;9.938;2022-09-09T03:33:19;152041.22;;;14.81
15453;BMP280;7827;53.594;9.938;2022-09-09T03:35:48;152041.22;;;14.81
15453;BMP280;7827;53.594;9.938;2022-09-09T03:38:18;152033.69;;;14.78
15453;BMP280;7827;53.594;9.938;2022-09-09T03:40:52;152031.16;;;14.77
15453;BMP280;7827;53.594;9.938;2022-09-09T03:43:24;152021.06;;;14.73
15453;BMP280;7827;53.594;9.938;2022-09-09T03:45:54;152016.06;;;14.71
15453;BMP280;7827;53.594;9.938;2022-09-09T03:48:26;152021.06;;;14.73
15453;BMP280;7827;53.594;9.938;2022-09-09T03:50:56;152018.59;;;14.72
15453;BMP280;7827;53.594;9.938;2022-09-09T03:53:29;152016.06;;;14.71
15453;BMP280;7827;53.594;9.938;2022-09-09T03:55:58;152013.53;;;14.70
15453;BMP280;7827;53.594;9.938;2022-09-09T03:58:29;152001.00;;;14.65
15453;BMP280;7827;53.594;9.938;2022-09-09T04:01:08;151993.47;;;14.62
15453;BMP280;7827;53.594;9.938;2022-09-09T04:03:37;151985.91;;;14.60
15453;BMP280;7827;53.594;9.938;2022-09-09T04:06:09;151985.91;;;14.60
15453;BMP280;7827;53.594;9.938;2022-09-09T04:08:39;151985.91;;;14.60
15453;BMP280;7827;53.594;9.938;2022-09-09T04:11:08;151977.16;;;14.56
15453;BMP280;7827;53.594;9.938;2022-09-09T04:13:38;151975.84;;;14.56
15453;BMP280;7827;53.594;9.938;2022-09-09T04:16:12;151967.06;;;14.52
15453;BMP280;7827;53.594;9.938;2022-09-09T04:18:43;151965.84;;;14.52
15453;BMP280;7827;53.594;9.938;2022-09-09T04:21:13;151969.59;;;14.53
15453;BMP280;7827;53.594;9.938;2022-09-09T04:23:42;151967.06;;;14.52
15453;BMP280;7827;53.594;9.938;2022-09-09T04:26:10;151965.84;;;14.52
15453;BMP280;7827;53.594;9.938;2022-09-09T04:28:39;151953.25;;;14.47
15453;BMP280;7827;53.594;9.938;2022-09-09T04:31:18;151957.00;;;14.48
15453;BMP280;7827;53.594;9.938;2022-09-09T04:33:48;151954.47;;;14.47
15453;BMP280;7827;53.594;9.938;2022-09-09T04:36:17;151955.78;;;14.48
15453;BMP280;7827;53.594;9.938;2022-09-09T04:38:51;151955.78;;;14.48
15453;BMP280;7827;53.594;9.938;2022-09-09T04:41:19;151953.25;;;14.47
15453;BMP280;7827;53.594;9.938;2022-09-09T04:43:51;151950.72;;;14.46
15453;BMP280;7827;53.594;9.938;2022-09-09T04:46:23;151954.47;;;14.47
15453;BMP280;7827;53.594;9.938;2022-09-09T04:48:51;151948.22;;;14.45
15453;BMP280;7827;53.594;9.938;2022-09-09T04:51:22;151970.84;;;14.54
15453;BMP280;7827;53.594;9.938;2022-09-09T04:53:51;151975.84;;;14.56
15453;BMP280;7827;53.594;9.938;2022-09-09T04:56:21;151975.84;;;14.56
15453;BMP280;7827;53.594;9.938;2022-09-09T04:58:55;151979.63;;;14.57
15453;BMP280;7827;53.594;9.938;2022-09-09T05:01:33;151975.84;;;14.56
15453;BMP280;7827;53.594;9.938;2022-09-09T05:04:04;151978.38;;;14.57
15453;BMP280;7827;53.594;9.938;2022-09-09T05:06:33;151984.69;;;14.59
15453;BMP280;7827;53.594;9.938;2022-09-09T05:09:03;151990.94;;;14.61
15453;BMP280;7827;53.594;9.938;2022-09-09T05:11:33;151998.47;;;14.64
15453;BMP280;7827;53.594;9.938;2022-09-09T05:14:23;152003.53;;;14.66
15453;BMP280;7827;53.594;9.938;2022-09-09T05:16:52;152013.53;;;14.70
15453;BMP280;7827;53.594;9.938;2022-09-09T05:19:22;152021.06;;;14.73
15453;BMP280;7827;53.594;9.938;2022-09-09T05:21:51;152013.53;;;14.70
15453;BMP280;7827;53.594;9.938;2022-09-09T05:24:25;152014.84;;;14.71
15453;BMP280;7827;53.594;9.938;2022-09-09T05:26:56;152028.63;;;14.76
15453;BMP280;7827;53.594;9.938;2022-09-09T05:29:26;152037.44;;;14.80
15453;BMP280;7827;53.594;9.938;2022-09-09T05:31:57;152046.22;;;14.83
15453;BMP280;7827;53.594;9.938;2022-09-09T05:34:25;152056.28;;;14.87
15453;BMP280;7827;53.594;9.938;2022-09-09T05:36:54;152066.34;;;14.91
15453;BMP280;7827;53.594;9.938;2022-09-09T05:39:23;152066.34;;;14.91
15453;BMP280;7827;53.594;9.938;2022-09-09T05:41:51;152071.38;;;14.93
15453;BMP280;7827;53.594;9.938;2022-09-09T05:44:20;152076.38;;;14.95
15453;BMP280;7827;53.594;9.938;2022-09-09T05:46:50;152082.69;;;14.98
15453;BMP280;7827;53.594;9.938;2022-09-09T05:49:19;152081.44;;;14.97
15453;BMP280;7827;53.594;9.938;2022-09-09T05:51:48;152088.97;;;15.00
15453;BMP280;7827;53.594;9.938;2022-09-09T05:54:19;152088.97;;;15.00
15453;BMP280;7827;53.594;9.938;2022-09-09T05:56:50;152100.28;;;15.05
15453;BMP280;7827;53.594;9.938;2022-09-09T05:59:20;152109.06;;;15.08
15453;BMP280;7827;53.594;9.938;2022-09-09T06:01:52;152119.13;;;15.12
15453;BMP280;7827;53.594;9.938;2022-09-09T06:04:31;152129.16;;;15.16
15453;BMP280;7827;53.594;9.938;2022-09-09T06:07:00;152154.38;;;15.26
15453;BMP280;7827;53.594;9.938;2022-09-09T06:09:29;152171.97;;;15.33
15453;BMP280;7827;53.594;9.938;2022-09-09T06:11:57;152184.53;;;15.38
15453;BMP280;7827;53.594;9.938;2022-09-09T06:14:26;152194.59;;;15.42
15453;BMP280;7827;53.594;9.938;2022-09-09T06:16:57;152193.34;;;15.41
15453;BMP280;7827;53.594;9.938;2022-09-09T06:19:30;152207.16;;;15.47
15453;BMP280;7827;53.594;9.938;2022-09-09T06:21:59;152204.66;;;15.46
15453;BMP280;7827;53.594;9.938;2022-09-09T06:24:30;152208.44;;;15.47
15453;BMP280;7827;53.594;9.938;2022-09-09T06:27:00;152202.13;;;15.45
15453;BMP280;7827;53.594;9.938;2022-09-09T06:29:32;152202.13;;;15.45
15453;BMP280;7827;53.594;9.938;2022-09-09T06:32:02;152204.66;;;15.46
15453;BMP280;7827;53.594;9.938;2022-09-09T06:34:32;152209.69;;;15.48
15453;BMP280;7827;53.594;9.938;2022-09-09T06:37:00;152209.69;;;15.48
15453;BMP280;7827;53.594;9.938;2022-09-09T06:39:42;152217.22;;;15.51
15453;BMP280;7827;53.594;9.938;2022-09-09T06:42:11;152209.69;;;15.48
15453;BMP280;7827;53.594;9.938;2022-09-09T06:44:58;152213.44;;;15.49
15453;BMP280;7827;53.594;9.938;2022-09-09T06:47:34;152231.06;;;15.56
15453;BMP280;7827;53.594;9.938;2022-09-09T06:50:06;152251.16;;;15.64
15453;BMP280;7827;53.594;9.938;2022-09-09T06:52:35;152270.03;;;15.71
15453;BMP280;7827;53.594;9.938;2022-09-09T06:55:05;152282.63;;;15.76
15453;BMP280;7827;53.594;9.938;2022-09-09T06:57:34;152297.72;;;15.82
15453;BMP280;7827;53.594;9.938;2022-09-09T07:00:17;152317.81;;;15.90
15453;BMP280;7827;53.594;9.938;2022-09-09T07:02:45;152336.69;;;15.98
15453;BMP280;7827;53.594;9.938;2022-09-09T07:05:15;152358.06;;;16.06
15453;BMP280;7827;53.594;9.938;2022-09-09T07:07:45;152388.25;;;16.18
15453;BMP280;7827;53.594;9.938;2022-09-09T07:10:16;152412.19;;;16.27
15453;BMP280;7827;53.594;9.938;2022-09-09T07:12:50;152446.19;;;16.41
15453;BMP280;7827;53.594;9.938;2022-09-09T07:15:19;152483.94;;;16.56
15453;BMP280;7827;53.594;9.938;2022-09-09T07:17:49;152529.22;;;16.73
15453;BMP280;7827;53.594;9.938;2022-09-09T07:20:22;152558.19;;;16.85
15453;BMP280;7827;53.594;9.938;2022-09-09T07:22:55;152570.75;;;16.90
15453;BMP280;7827;53.594;9.938;2022-09-09T07:25:23;152564.44;;;16.87
15453;BMP280;7827;53.594;9.938;2022-09-09T07:27:56;152551.88;;;16.82
15453;BMP280;7827;53.594;9.938;2022-09-09T07:30:25;152549.34;;;16.81
15453;BMP280;7827;53.594;9.938;2022-09-09T07:32:54;152533.00;;;16.75
15453;BMP280;7827;53.594;9.938;2022-09-09T07:35:25;152526.69;;;16.72
15453;BMP280;7827;53.594;9.938;2022-09-09T07:37:54;152556.88;;;16.84
15453;BMP280;7827;53.594;9.938;2022-09-09T07:40:23;152597.16;;;17.00
15453;BMP280;7827;53.594;9.938;2022-09-09T07:42:52;152627.38;;;17.12
15453;BMP280;7827;53.594;9.938;2022-09-09T07:45:21;152655.16;;;17.23
15453;BMP280;7827;53.594;9.938;2022-09-09T07:47:49;152636.22;;;17.15
15453;BMP280;7827;53.594;9.938;2022-09-09T07:50:19;152628.66;;;17.12
15453;BMP280;7827;53.594;9.938;2022-09-09T07:52:49;152624.88;;;17.11
15453;BMP280;7827;53.594;9.938;2022-09-09T07:55:17;152622.34;;;17.10
15453;BMP280;7827;53.594;9.938;2022-09-09T07:57:46;152609.78;;;17.05
15453;BMP280;7827;53.594;9.938;2022-09-09T08:00:15;152608.50;;;17.05
15453;BMP280;7827;53.594;9.938;2022-09-09T08:02:49;152592.16;;;16.98
15453;BMP280;7827;53.594;9.938;2022-09-09T08:05:18;152593.41;;;16.99
15453;BMP280;7827;53.594;9.938;2022-09-09T08:07:49;152599.69;;;17.01
15453;BMP280;7827;53.594;9.938;2022-09-09T08:10:17;152609.78;;;17.05
15453;BMP280;7827;53.594;9.938;2022-09-09T08:12:48;152655.16;;;17.23
15453;BMP280;7827;53.594;9.938;2022-09-09T08:15:36;152697.91;;;17.40
15453;BMP280;7827;53.594;9.938;2022-09-09T08:18:05;152718.09;;;17.48
15453;BMP280;7827;53.594;9.938;2022-09-09T08:20:36;152691.59;;;17.37
15453;BMP280;7827;53.594;9.938;2022-09-09T08:23:06;152711.78;;;17.45
15453;BMP280;7827;53.594;9.938;2022-09-09T08:25:34;152726.88;;;17.51
15453;BMP280;7827;53.594;9.938;2022-09-09T08:28:02;152740.75;;;17.57
15453;BMP280;7827;53.594;9.938;2022-09-09T08:30:31;152755.84;;;17.62
15453;BMP280;7827;53.594;9.938;2022-09-09T08:32:59;152758.34;;;17.63
15453;BMP280;7827;53.594;9.938;2022-09-09T08:35:27;152749.56;;;17.60
15453;BMP280;7827;53.594;9.938;2022-09-09T08:38:00;152748.31;;;17.59
15453;BMP280;7827;53.594;9.938;2022-09-09T08:40:40;152750.78;;;17.60
15453;BMP280;7827;53.594;9.938;2022-09-09T08:43:11;152754.56;;;17.62
15453;BMP280;7827;53.594;9.938;2022-09-09T08:45:52;152750.78;;;17.60
15453;BMP280;7827;53.594;9.938;2022-09-09T08:48:46;152763.41;;;17.65
15453;BMP280;7827;53.594;9.938;2022-09-09T08:51:19;152775.97;;;17.70
15453;BMP280;7827;53.594;9.938;2022-09-09T08:53:50;152794.88;;;17.78
15453;BMP280;7827;53.594;9.938;2022-09-09T08:56:28;152804.97;;;17.82
15453;BMP280;7827;53.594;9.938;2022-09-09T08:59:01;152815.06;;;17.86
15453;BMP280;7827;53.594;9.938;2022-09-09T09:01:47;152836.41;;;17.94
15453;BMP280;7827;53.594;9.938;2022-09-09T09:04:44;152865.41;;;18.05
15453;BMP280;7827;53.594;9.938;2022-09-09T09:07:31;152884.28;;;18.13
15453;BMP280;7827;53.594;9.938;2022-09-09T09:10:15;152914.56;;;18.25
15453;BMP280;7827;53.594;9.938;2022-09-09T09:13:15;152954.88;;;18.41
15453;BMP280;7827;53.594;9.938;2022-09-09T09:15:50;153027.97;;;18.69
15453;BMP280;7827;53.594;9.938;2022-09-09T09:18:21;153101.03;;;18.98
15453;BMP280;7827;53.594;9.938;2022-09-09T09:20:59;153138.88;;;19.13
15453;BMP280;7827;53.594;9.938;2022-09-09T09:23:39;153126.31;;;19.08
15453;BMP280;7827;53.594;9.938;2022-09-09T09:26:10;153132.63;;;19.10
15453;BMP280;7827;53.594;9.938;2022-09-09T09:28:41;153154.06;;;19.19
15453;BMP280;7827;53.594;9.938;2022-09-09T09:31:14;153169.19;;;19.25
15453;BMP280;7827;53.594;9.938;2022-09-09T09:33:49;153155.31;;;19.19
15453;BMP280;7827;53.594;9.938;2022-09-09T09:36:32;153145.22;;;19.15
15453;BMP280;7827;53.594;9.938;2022-09-09T09:39:03;153136.41;;;19.12
15453;BMP280;7827;53.594;9.938;2022-09-09T09:41:53;153131.31;;;19.10
15453;BMP280;7827;53.594;9.938;2022-09-09T09:44:28;153118.75;;;19.05
15453;BMP280;7827;53.594;9.938;2022-09-09T09:47:11;153113.72;;;19.03
15453;BMP280;7827;53.594;9.938;2022-09-09T09:49:52;153123.75;;;19.07
15453;BMP280;7827;53.594;9.938;2022-09-09T09:52:23;153141.44;;;19.14
15453;BMP280;7827;53.594;9.938;2022-09-09T09:54:54;153170.44;;;19.25
15453;BMP280;7827;53.594;9.938;2022-09-09T09:57:27;153220.84;;;19.45
15453;BMP280;7827;53.594;9.938;2022-09-09T10:00:13;153271.28;;;19.65
15453;BMP280;7827;53.594;9.938;2022-09-09T10:02:45;153287.66;;;19.71
15453;BMP280;7827;53.594;9.938;2022-09-09T10:05:22;153306.56;;;19.79
15453;BMP280;7827;53.594;9.938;2022-09-09T10:08:04;153345.72;;;19.94
15453;BMP280;7827;53.594;9.938;2022-09-09T10:10:45;153360.88;;;20.00
15453;BMP280;7827;53.594;9.938;2022-09-09T10:13:20;153350.75;;;19.96
15453;BMP280;7827;53.594;9.938;2022-09-09T10:16:12;153333.09;;;19.89
15453;BMP280;7827;53.594;9.938;2022-09-09T10:18:59;153330.59;;;19.88
15453;BMP280;7827;53.594;9.938;2022-09-09T10:21:56;153357.09;;;19.99
15453;BMP280;7827;53.594;9.938;2022-09-09T10:25:01;153365.88;;;20.02
15453;BMP280;7827;53.594;9.938;2022-09-09T10:27:44;153416.38;;;20.22
15453;BMP280;7827;53.594;9.938;2022-09-09T10:30:18;153451.66;;;20.36
15453;BMP280;7827;53.594;9.938;2022-09-09T10:32:57;153466.78;;;20.42
15453;BMP280;7827;53.594;9.938;2022-09-09T10:35:33;153476.91;;;20.46
15453;BMP280;7827;53.594;9.938;2022-09-09T10:38:16;153500.84;;;20.55
15453;BMP280;7827;53.594;9.938;2022-09-09T10:41:12;153522.31;;;20.63
15453;BMP280;7827;53.594;9.938;2022-09-09T10:44:15;153535.00;;;20.68
15453;BMP280;7827;53.594;9.938;2022-09-09T10:47:16;153540.03;;;20.70
15453;BMP280;7827;53.594;9.938;2022-09-09T10:50:09;153558.97;;;20.78
15453;BMP280;7827;53.594;9.938;2022-09-09T10:52:50;153603.13;;;20.95
15453;BMP280;7827;53.594;9.938;2022-09-09T10:55:30;153651.09;;;21.14
15453;BMP280;7827;53.594;9.938;2022-09-09T10:58:02;153638.44;;;21.09
15453;BMP280;7827;53.594;9.938;2022-09-09T11:00:40;153575.34;;;20.84
15453;BMP280;7827;53.594;9.938;2022-09-09T11:03:19;153572.84;;;20.83
15453;BMP280;7827;53.594;9.938;2022-09-09T11:05:55;153611.94;;;20.99
15453;BMP280;7827;53.594;9.938;2022-09-09T11:08:26;153618.28;;;21.01
15453;BMP280;7827;53.594;9.938;2022-09-09T11:11:02;153586.69;;;20.89
15453;BMP280;7827;53.594;9.938;2022-09-09T11:13:39;153566.53;;;20.81
15453;BMP280;7827;53.594;9.938;2022-09-09T11:16:23;153561.50;;;20.79
15453;BMP280;7827;53.594;9.938;2022-09-09T11:19:00;153558.97;;;20.78
15453;BMP280;7827;53.594;9.938;2022-09-09T11:21:39;153535.00;;;20.68
15453;BMP280;7827;53.594;9.938;2022-09-09T11:24:18;153514.75;;;20.60
15453;BMP280;7827;53.594;9.938;2022-09-09T11:26:54;153540.03;;;20.70
15453;BMP280;7827;53.594;9.938;2022-09-09T11:29:57;153535.00;;;20.68
15453;BMP280;7827;53.594;9.938;2022-09-09T11:35:45;153640.97;;;21.10
15453;BMP280;7827;53.594;9.938;2022-09-09T11:38:25;153696.53;;;21.32
15453;BMP280;7827;53.594;9.938;2022-09-09T11:40:58;153701.56;;;21.34
15453;BMP280;7827;53.594;9.938;2022-09-09T11:43:31;153729.34;;;21.45
15453;BMP280;7827;53.594;9.938;2022-09-09T11:46:02;153760.94;;;21.57
15453;BMP280;7827;53.594;9.938;2022-09-09T11:48:34;153742.00;;;21.50
15453;BMP280;7827;53.594;9.938;2022-09-09T11:51:07;153777.34;;;21.63
15453;BMP280;7827;53.594;9.938;2022-09-09T11:53:52;153840.47;;;21.88
15453;BMP280;7827;53.594;9.938;2022-09-09T11:56:29;153850.56;;;21.92
15453;BMP280;7827;53.594;9.938;2022-09-09T11:59:02;153805.13;;;21.74
15453;BMP280;7827;53.594;9.938;2022-09-09T12:01:36;153788.69;;;21.68
15453;BMP280;7827;53.594;9.938;2022-09-09T12:04:39;153747.03;;;21.52
15453;BMP280;7827;53.594;9.938;2022-09-09T12:07:30;153696.53;;;21.32
15453;BMP280;7827;53.594;9.938;2022-09-09T12:10:18;153661.16;;;21.18
15453;BMP280;7827;53.594;9.938;2022-09-09T12:12:47;153652.34;;;21.14
15453;BMP280;7827;53.594;9.938;2022-09-09T12:15:28;153651.09;;;21.14
15453;BMP280;7827;53.594;9.938;2022-09-09T12:17:58;153653.59;;;21.15
15453;BMP280;7827;53.594;9.938;2022-09-09T12:20:35;153639.75;;;21.09
15453;BMP280;7827;53.594;9.938;2022-09-09T12:23:23;153605.63;;;20.96
15453;BMP280;7827;53.594;9.938;2022-09-09T12:26:24;153579.13;;;20.86
15453;BMP280;7827;53.594;9.938;2022-09-09T12:29:06;153562.75;;;20.79
15453;BMP280;7827;53.594;9.938;2022-09-09T12:31:44;153543.81;;;20.72
15453;BMP280;7827;53.594;9.938;2022-09-09T12:34:17;153524.84;;;20.64
15453;BMP280;7827;53.594;9.938;2022-09-09T12:36:54;153517.28;;;20.61
15453;BMP280;7827;53.594;9.938;2022-09-09T12:39:32;153504.63;;;20.56
15453;BMP280;7827;53.594;9.938;2022-09-09T12:42:03;153495.81;;;20.53
15453;BMP280;7827;53.594;9.938;2022-09-09T12:44:31;153479.44;;;20.47
15453;BMP280;7827;53.594;9.938;2022-09-09T12:47:03;153473.13;;;20.44
15453;BMP280;7827;53.594;9.938;2022-09-09T12:49:35;153471.88;;;20.44
15453;BMP280;7827;53.594;9.938;2022-09-09T12:52:13;153475.66;;;20.45
15453;BMP280;7827;53.594;9.938;2022-09-09T12:54:46;153464.31;;;20.41
15453;BMP280;7827;53.594;9.938;2022-09-09T12:57:16;153459.22;;;20.39
15453;BMP280;7827;53.594;9.938;2022-09-09T12:59:44;153445.38;;;20.33
15453;BMP280;7827;53.594;9.938;2022-09-09T13:02:23;153417.59;;;20.22
15453;BMP280;7827;53.594;9.938;2022-09-09T13:04:53;153399.94;;;20.15
15453;BMP280;7827;53.594;9.938;2022-09-09T13:07:22;153383.56;;;20.09
15453;BMP280;7827;53.594;9.938;2022-09-09T13:09:52;153376.00;;;20.06
15453;BMP280;7827;53.594;9.938;2022-09-09T13:12:22;153360.88;;;20.00
15453;BMP280;7827;53.594;9.938;2022-09-09T13:14:55;153358.31;;;19.99
15453;BMP280;7827;53.594;9.938;2022-09-09T13:17:26;153330.59;;;19.88
15453;BMP280;7827;53.594;9.938;2022-09-09T13:19:57;153295.22;;;19.74
15453;BMP280;7827;53.594;9.938;2022-09-09T13:22:31;153275.06;;;19.66
15453;BMP280;7827;53.594;9.938;2022-09-09T13:25:04;153249.84;;;19.56
15453;BMP280;7827;53.594;9.938;2022-09-09T13:27:36;153229.69;;;19.49
15453;BMP280;7827;53.594;9.938;2022-09-09T13:30:22;153199.44;;;19.37
15453;BMP280;7827;53.594;9.938;2022-09-09T13:33:05;153118.75;;;19.05
15453;BMP280;7827;53.594;9.938;2022-09-09T13:35:34;153039.31;;;18.74
15453;BMP280;7827;53.594;9.938;2022-09-09T13:38:09;152947.31;;;18.38
15453;BMP280;7827;53.594;9.938;2022-09-09T13:40:38;152860.38;;;18.04
15453;BMP280;7827;53.594;9.938;2022-09-09T13:43:18;152808.72;;;17.83
15453;BMP280;7827;53.594;9.938;2022-09-09T13:45:54;152772.22;;;17.69
15453;BMP280;7827;53.594;9.938;2022-09-09T13:48:24;152745.78;;;17.58
15453;BMP280;7827;53.594;9.938;2022-09-09T13:50:59;152731.91;;;17.53
15453;BMP280;7827;53.594;9.938;2022-09-09T13:53:28;152742.00;;;17.57
15453;BMP280;7827;53.594;9.938;2022-09-09T13:55:58;152749.56;;;17.60
15453;BMP280;7827;53.594;9.938;2022-09-09T13:58:27;152745.78;;;17.58
15453;BMP280;7827;53.594;9.938;2022-09-09T14:00:55;152752.06;;;17.61
15453;BMP280;7827;53.594;9.938;2022-09-09T14:03:24;152739.47;;;17.56
15453;BMP280;7827;53.594;9.938;2022-09-09T14:05:53;152750.78;;;17.60
15453;BMP280;7827;53.594;9.938;2022-09-09T14:08:25;152755.84;;;17.62
15453;BMP280;7827;53.594;9.938;2022-09-09T14:10:55;152765.91;;;17.66
15453;BMP280;7827;53.594;9.938;2022-09-09T14:13:26;152772.22;;;17.69
15453;BMP280;7827;53.594;9.938;2022-09-09T14:15:54;152786.06;;;17.74
15453;BMP280;7827;53.594;9.938;2022-09-09T14:18:23;152802.41;;;17.81
15453;BMP280;7827;53.594;9.938;2022-09-09T14:20:52;152807.50;;;17.83
15453;BMP280;7827;53.594;9.938;2022-09-09T14:23:20;152816.28;;;17.86
15453;BMP280;7827;53.594;9.938;2022-09-09T14:25:50;152818.81;;;17.87
15453;BMP280;7827;53.594;9.938;2022-09-09T14:28:18;152826.38;;;17.90
15453;BMP280;7827;53.594;9.938;2022-09-09T14:31:08;152830.16;;;17.92
15453;BMP280;7827;53.594;9.938;2022-09-09T14:33:37;152821.31;;;17.88
15453;BMP280;7827;53.594;9.938;2022-09-09T14:36:06;152807.50;;;17.83
15453;BMP280;7827;53.594;9.938;2022-09-09T14:38:37;152803.72;;;17.81
15453;BMP280;7827;53.594;9.938;2022-09-09T14:41:07;152793.63;;;17.77
15453;BMP280;7827;53.594;9.938;2022-09-09T14:43:35;152786.06;;;17.74
15453;BMP280;7827;53.594;9.938;2022-09-09T14:46:05;152791.09;;;17.76
15453;BMP280;7827;53.594;9.938;2022-09-09T14:48:35;152788.59;;;17.75
15453;BMP280;7827;53.594;9.938;2022-09-09T14:51:08;152786.06;;;17.74
15453;BMP280;7827;53.594;9.938;2022-09-09T14:53:37;152786.06;;;17.74
15453;BMP280;7827;53.594;9.938;2022-09-09T14:56:09;152796.16;;;17.78